sensor_id;sensor_type;location;lat;lon;timestamp;P1;durP1;ratioP1;P2;durP2;ratioP2
9473;SDS011;8865;47.636;7.692;2022-11-06T00:00:43;5.70;;;4.30;;
9473;SDS011;8865;47.636;7.692;2022-11-06T00:03:10;4.57;;;3.83;;
9473;SDS011;8865;47.636;7.692;2022-11-06T00:05:39;4.63;;;4.17;;
9473;SDS011;8865;47.636;7.692;2022-11-06T00:08:29;4.67;;;4.27;;
9473;SDS011;8865;47.636;7.692;2022-11-06T00:11:00;8.00;;;4.20;;
9473;SDS011;8865;47.636;7.692;2022-11-06T00:13:32;4.53;;;3.80;;
9473;SDS011;8865;47.636;7.692;2022-11-06T00:16:00;4.93;;;4.20;;
9473;SDS011;8865;47.636;7.692;2022-11-06T00:18:28;5.13;;;4.20;;
9473;SDS011;8865;47.636;7.692;2022-11-06T00:20:54;5.43;;;4.50;;
9473;SDS011;8865;47.636;7.692;2022-11-06T00:23:20;5.30;;;3.70;;
9473;SDS011;8865;47.636;7.692;2022-11-06T00:25:46;4.20;;;3.80;;
9473;SDS011;8865;47.636;7.692;2022-11-06T00:28:18;5.77;;;4.00;;
9473;SDS011;8865;47.636;7.692;2022-11-06T00:30:44;6.13;;;4.00;;
9473;SDS011;8865;47.636;7.692;2022-11-06T00:33:12;4.77;;;4.20;;
9473;SDS011;8865;47.636;7.692;2022-11-06T00:35:38;6.57;;;4.50;;
9473;SDS011;8865;47.636;7.692;2022-11-06T00:38:05;5.30;;;4.37;;
9473;SDS011;8865;47.636;7.692;2022-11-06T00:40:31;5.83;;;4.70;;
9473;SDS011;8865;47.636;7.692;2022-11-06T00:42:57;6.57;;;4.90;;
9473;SDS011;8865;47.636;7.692;2022-11-06T00:45:24;4.90;;;4.40;;
9473;SDS011;8865;47.636;7.692;2022-11-06T00:47:50;7.70;;;5.23;;
9473;SDS011;8865;47.636;7.692;2022-11-06T00:50:16;6.27;;;4.63;;
9473;SDS011;8865;47.636;7.692;2022-11-06T00:52:43;5.33;;;4.83;;
9473;SDS011;8865;47.636;7.692;2022-11-06T00:55:09;7.13;;;4.83;;
9473;SDS011;8865;47.636;7.692;2022-11-06T00:57:35;4.67;;;4.17;;
9473;SDS011;8865;47.636;7.692;2022-11-06T01:00:01;6.30;;;4.57;;
9473;SDS011;8865;47.636;7.692;2022-11-06T01:02:28;5.70;;;4.40;;
9473;SDS011;8865;47.636;7.692;2022-11-06T01:04:54;5.67;;;4.40;;
9473;SDS011;8865;47.636;7.692;2022-11-06T01:07:20;6.03;;;4.10;;
9473;SDS011;8865;47.636;7.692;2022-11-06T01:09:46;5.20;;;3.73;;
9473;SDS011;8865;47.636;7.692;2022-11-06T01:12:12;5.57;;;4.47;;
9473;SDS011;8865;47.636;7.692;2022-11-06T01:14:38;4.80;;;4.03;;
9473;SDS011;8865;47.636;7.692;2022-11-06T01:17:05;5.40;;;4.40;;
9473;SDS011;8865;47.636;7.692;2022-11-06T01:19:31;6.50;;;4.13;;
9473;SDS011;8865;47.636;7.692;2022-11-06T01:21:57;4.03;;;3.63;;
9473;SDS011;8865;47.636;7.692;2022-11-06T01:24:24;6.57;;;4.40;;
9473;SDS011;8865;47.636;7.692;2022-11-06T01:26:54;4.63;;;4.17;;
9473;SDS011;8865;47.636;7.692;2022-11-06T01:29:21;4.37;;;3.70;;
9473;SDS011;8865;47.636;7.692;2022-11-06T01:31:47;5.07;;;4.20;;
9473;SDS011;8865;47.636;7.692;2022-11-06T01:34:16;6.07;;;3.60;;
9473;SDS011;8865;47.636;7.692;2022-11-06T01:36:43;4.90;;;3.40;;
9473;SDS011;8865;47.636;7.692;2022-11-06T01:39:10;5.70;;;3.20;;
9473;SDS011;8865;47.636;7.692;2022-11-06T01:41:39;3.90;;;3.43;;
9473;SDS011;8865;47.636;7.692;2022-11-06T01:47:22;4.90;;;3.80;;
9473;SDS011;8865;47.636;7.692;2022-11-06T01:49:54;4.37;;;3.70;;
9473;SDS011;8865;47.636;7.692;2022-11-06T01:52:22;6.43;;;3.70;;
9473;SDS011;8865;47.636;7.692;2022-11-06T01:54:51;5.93;;;3.77;;
9473;SDS011;8865;47.636;7.692;2022-11-06T01:57:20;5.73;;;4.43;;
9473;SDS011;8865;47.636;7.692;2022-11-06T01:59:46;5.67;;;3.93;;
9473;SDS011;8865;47.636;7.692;2022-11-06T02:02:18;6.10;;;3.63;;
9473;SDS011;8865;47.636;7.692;2022-11-06T02:04:44;4.13;;;3.43;;
9473;SDS011;8865;47.636;7.692;2022-11-06T02:07:12;6.00;;;3.80;;
9473;SDS011;8865;47.636;7.692;2022-11-06T02:09:39;5.13;;;3.67;;
9473;SDS011;8865;47.636;7.692;2022-11-06T02:20:26;3.97;;;3.10;;
9473;SDS011;8865;47.636;7.692;2022-11-06T02:26:19;4.97;;;3.07;;
9473;SDS011;8865;47.636;7.692;2022-11-06T02:28:48;2.93;;;2.60;;
9473;SDS011;8865;47.636;7.692;2022-11-06T02:31:20;3.40;;;3.10;;
9473;SDS011;8865;47.636;7.692;2022-11-06T02:33:55;3.70;;;2.80;;
9473;SDS011;8865;47.636;7.692;2022-11-06T02:36:29;4.17;;;3.13;;
9473;SDS011;8865;47.636;7.692;2022-11-06T02:39:06;3.20;;;2.90;;
9473;SDS011;8865;47.636;7.692;2022-11-06T02:41:38;4.33;;;2.80;;
9473;SDS011;8865;47.636;7.692;2022-11-06T02:44:08;4.47;;;2.60;;
9473;SDS011;8865;47.636;7.692;2022-11-06T02:46:39;4.67;;;2.97;;
9473;SDS011;8865;47.636;7.692;2022-11-06T02:49:13;3.30;;;2.60;;
9473;SDS011;8865;47.636;7.692;2022-11-06T02:51:47;4.47;;;3.00;;
9473;SDS011;8865;47.636;7.692;2022-11-06T02:54:18;4.17;;;3.00;;
9473;SDS011;8865;47.636;7.692;2022-11-06T02:56:48;3.23;;;2.80;;
9473;SDS011;8865;47.636;7.692;2022-11-06T02:59:17;5.03;;;2.87;;
9473;SDS011;8865;47.636;7.692;2022-11-06T03:01:51;3.00;;;2.70;;
9473;SDS011;8865;47.636;7.692;2022-11-06T03:04:32;3.60;;;2.80;;
9473;SDS011;8865;47.636;7.692;2022-11-06T03:07:09;3.13;;;2.70;;
9473;SDS011;8865;47.636;7.692;2022-11-06T03:09:40;7.73;;;3.30;;
9473;SDS011;8865;47.636;7.692;2022-11-06T03:12:10;5.40;;;2.67;;
9473;SDS011;8865;47.636;7.692;2022-11-06T03:14:48;3.07;;;2.40;;
9473;SDS011;8865;47.636;7.692;2022-11-06T03:17:40;4.20;;;2.77;;
9473;SDS011;8865;47.636;7.692;2022-11-06T03:23:10;3.40;;;3.10;;
9473;SDS011;8865;47.636;7.692;2022-11-06T03:25:49;3.10;;;2.80;;
9473;SDS011;8865;47.636;7.692;2022-11-06T03:28:26;3.90;;;3.10;;
9473;SDS011;8865;47.636;7.692;2022-11-06T03:30:57;4.27;;;2.97;;
9473;SDS011;8865;47.636;7.692;2022-11-06T03:36:16;3.40;;;2.63;;
9473;SDS011;8865;47.636;7.692;2022-11-06T03:39:09;4.27;;;2.60;;
9473;SDS011;8865;47.636;7.692;2022-11-06T03:44:07;3.70;;;2.90;;
9473;SDS011;8865;47.636;7.692;2022-11-06T03:46:35;4.03;;;2.60;;
9473;SDS011;8865;47.636;7.692;2022-11-06T03:49:09;2.93;;;2.67;;
9473;SDS011;8865;47.636;7.692;2022-11-06T03:51:52;3.50;;;3.00;;
9473;SDS011;8865;47.636;7.692;2022-11-06T03:54:25;3.13;;;2.60;;
9473;SDS011;8865;47.636;7.692;2022-11-06T03:56:59;3.03;;;2.40;;
9473;SDS011;8865;47.636;7.692;2022-11-06T03:59:33;2.60;;;2.40;;
9473;SDS011;8865;47.636;7.692;2022-11-06T04:02:04;2.63;;;2.43;;
9473;SDS011;8865;47.636;7.692;2022-11-06T04:04:37;4.50;;;2.73;;
9473;SDS011;8865;47.636;7.692;2022-11-06T04:07:12;4.50;;;2.80;;
9473;SDS011;8865;47.636;7.692;2022-11-06T04:09:41;4.60;;;2.60;;
9473;SDS011;8865;47.636;7.692;2022-11-06T04:12:30;3.70;;;2.67;;
9473;SDS011;8865;47.636;7.692;2022-11-06T04:15:31;6.77;;;3.27;;
9473;SDS011;8865;47.636;7.692;2022-11-06T04:18:01;2.83;;;2.60;;
9473;SDS011;8865;47.636;7.692;2022-11-06T04:20:29;2.87;;;2.57;;
9473;SDS011;8865;47.636;7.692;2022-11-06T04:23:26;4.40;;;3.10;;
9473;SDS011;8865;47.636;7.692;2022-11-06T04:26:36;3.93;;;3.00;;
9473;SDS011;8865;47.636;7.692;2022-11-06T04:29:24;4.10;;;3.60;;
9473;SDS011;8865;47.636;7.692;2022-11-06T04:34:39;6.80;;;5.67;;
9473;SDS011;8865;47.636;7.692;2022-11-06T04:37:20;6.67;;;5.87;;
9473;SDS011;8865;47.636;7.692;2022-11-06T04:42:54;9.77;;;7.30;;
9473;SDS011;8865;47.636;7.692;2022-11-06T04:45:24;7.83;;;6.57;;
9473;SDS011;8865;47.636;7.692;2022-11-06T04:47:54;8.70;;;6.43;;
9473;SDS011;8865;47.636;7.692;2022-11-06T04:50:22;11.23;;;7.63;;
9473;SDS011;8865;47.636;7.692;2022-11-06T04:52:51;9.47;;;7.50;;
9473;SDS011;8865;47.636;7.692;2022-11-06T04:55:19;9.43;;;7.37;;
9473;SDS011;8865;47.636;7.692;2022-11-06T04:57:45;10.40;;;7.63;;
9473;SDS011;8865;47.636;7.692;2022-11-06T05:00:12;10.20;;;6.90;;
9473;SDS011;8865;47.636;7.692;2022-11-06T05:02:39;8.00;;;6.40;;
9473;SDS011;8865;47.636;7.692;2022-11-06T05:05:05;9.27;;;6.77;;
9473;SDS011;8865;47.636;7.692;2022-11-06T05:07:32;8.63;;;6.77;;
9473;SDS011;8865;47.636;7.692;2022-11-06T05:09:58;8.43;;;6.40;;
9473;SDS011;8865;47.636;7.692;2022-11-06T05:12:24;8.97;;;6.57;;
9473;SDS011;8865;47.636;7.692;2022-11-06T05:14:50;6.10;;;5.50;;
9473;SDS011;8865;47.636;7.692;2022-11-06T05:17:16;8.40;;;6.00;;
9473;SDS011;8865;47.636;7.692;2022-11-06T05:19:42;7.27;;;6.33;;
9473;SDS011;8865;47.636;7.692;2022-11-06T05:22:08;9.10;;;6.53;;
9473;SDS011;8865;47.636;7.692;2022-11-06T05:24:53;9.33;;;6.60;;
9473;SDS011;8865;47.636;7.692;2022-11-06T05:27:22;8.27;;;5.93;;
9473;SDS011;8865;47.636;7.692;2022-11-06T05:29:48;10.77;;;6.80;;
9473;SDS011;8865;47.636;7.692;2022-11-06T05:32:16;7.90;;;6.60;;
9473;SDS011;8865;47.636;7.692;2022-11-06T05:34:42;8.37;;;6.73;;
9473;SDS011;8865;47.636;7.692;2022-11-06T05:37:11;9.13;;;6.53;;
9473;SDS011;8865;47.636;7.692;2022-11-06T05:39:37;8.03;;;5.73;;
9473;SDS011;8865;47.636;7.692;2022-11-06T05:42:03;7.70;;;5.77;;
9473;SDS011;8865;47.636;7.692;2022-11-06T05:44:29;7.00;;;5.73;;
9473;SDS011;8865;47.636;7.692;2022-11-06T05:46:55;8.00;;;5.77;;
9473;SDS011;8865;47.636;7.692;2022-11-06T05:49:21;9.67;;;5.70;;
9473;SDS011;8865;47.636;7.692;2022-11-06T05:51:47;6.90;;;5.27;;
9473;SDS011;8865;47.636;7.692;2022-11-06T05:54:13;7.00;;;5.57;;
9473;SDS011;8865;47.636;7.692;2022-11-06T05:56:39;8.77;;;5.57;;
9473;SDS011;8865;47.636;7.692;2022-11-06T05:59:05;9.33;;;6.00;;
9473;SDS011;8865;47.636;7.692;2022-11-06T06:01:33;7.50;;;6.00;;
9473;SDS011;8865;47.636;7.692;2022-11-06T06:03:59;7.30;;;5.60;;
9473;SDS011;8865;47.636;7.692;2022-11-06T06:06:25;7.00;;;5.40;;
9473;SDS011;8865;47.636;7.692;2022-11-06T06:08:51;8.97;;;6.80;;
9473;SDS011;8865;47.636;7.692;2022-11-06T06:11:17;8.87;;;5.97;;
9473;SDS011;8865;47.636;7.692;2022-11-06T06:13:44;8.60;;;6.47;;
9473;SDS011;8865;47.636;7.692;2022-11-06T06:16:10;8.43;;;6.40;;
9473;SDS011;8865;47.636;7.692;2022-11-06T06:18:35;7.93;;;6.53;;
9473;SDS011;8865;47.636;7.692;2022-11-06T06:21:01;9.73;;;7.10;;
9473;SDS011;8865;47.636;7.692;2022-11-06T06:23:27;9.90;;;7.10;;
9473;SDS011;8865;47.636;7.692;2022-11-06T06:25:55;10.53;;;7.20;;
9473;SDS011;8865;47.636;7.692;2022-11-06T06:28:21;9.37;;;7.37;;
9473;SDS011;8865;47.636;7.692;2022-11-06T06:30:47;11.23;;;7.40;;
9473;SDS011;8865;47.636;7.692;2022-11-06T06:33:13;9.30;;;7.00;;
9473;SDS011;8865;47.636;7.692;2022-11-06T06:35:39;10.47;;;7.47;;
9473;SDS011;8865;47.636;7.692;2022-11-06T06:38:05;11.47;;;7.70;;
9473;SDS011;8865;47.636;7.692;2022-11-06T06:40:34;10.20;;;7.53;;
9473;SDS011;8865;47.636;7.692;2022-11-06T06:43:03;10.33;;;7.70;;
9473;SDS011;8865;47.636;7.692;2022-11-06T06:45:29;9.97;;;7.40;;
9473;SDS011;8865;47.636;7.692;2022-11-06T06:48:00;10.43;;;7.70;;
9473;SDS011;8865;47.636;7.692;2022-11-06T06:50:29;10.77;;;8.00;;
9473;SDS011;8865;47.636;7.692;2022-11-06T06:52:56;9.73;;;7.13;;
9473;SDS011;8865;47.636;7.692;2022-11-06T06:55:23;10.40;;;7.07;;
9473;SDS011;8865;47.636;7.692;2022-11-06T06:57:59;9.80;;;7.50;;
9473;SDS011;8865;47.636;7.692;2022-11-06T07:00:26;10.73;;;7.30;;
9473;SDS011;8865;47.636;7.692;2022-11-06T07:02:53;10.07;;;7.57;;
9473;SDS011;8865;47.636;7.692;2022-11-06T07:05:19;9.03;;;7.13;;
9473;SDS011;8865;47.636;7.692;2022-11-06T07:07:45;8.67;;;6.67;;
9473;SDS011;8865;47.636;7.692;2022-11-06T07:10:11;10.00;;;7.63;;
9473;SDS011;8865;47.636;7.692;2022-11-06T07:12:37;9.67;;;7.23;;
9473;SDS011;8865;47.636;7.692;2022-11-06T07:15:03;8.53;;;6.67;;
9473;SDS011;8865;47.636;7.692;2022-11-06T07:17:30;9.13;;;7.40;;
9473;SDS011;8865;47.636;7.692;2022-11-06T07:19:58;9.57;;;7.50;;
9473;SDS011;8865;47.636;7.692;2022-11-06T07:22:25;10.00;;;6.63;;
9473;SDS011;8865;47.636;7.692;2022-11-06T07:24:51;9.50;;;7.40;;
9473;SDS011;8865;47.636;7.692;2022-11-06T07:27:17;9.47;;;6.70;;
9473;SDS011;8865;47.636;7.692;2022-11-06T07:29:43;8.53;;;6.83;;
9473;SDS011;8865;47.636;7.692;2022-11-06T07:32:09;9.87;;;8.20;;
9473;SDS011;8865;47.636;7.692;2022-11-06T07:34:35;8.57;;;7.40;;
9473;SDS011;8865;47.636;7.692;2022-11-06T07:37:06;9.33;;;7.43;;
9473;SDS011;8865;47.636;7.692;2022-11-06T07:39:32;8.27;;;7.20;;
9473;SDS011;8865;47.636;7.692;2022-11-06T07:41:58;9.80;;;7.67;;
9473;SDS011;8865;47.636;7.692;2022-11-06T07:44:24;8.80;;;6.80;;
9473;SDS011;8865;47.636;7.692;2022-11-06T07:46:50;8.90;;;6.97;;
9473;SDS011;8865;47.636;7.692;2022-11-06T07:49:16;8.37;;;7.47;;
9473;SDS011;8865;47.636;7.692;2022-11-06T07:51:42;9.07;;;7.37;;
9473;SDS011;8865;47.636;7.692;2022-11-06T07:54:09;9.30;;;7.67;;
9473;SDS011;8865;47.636;7.692;2022-11-06T07:56:36;8.53;;;7.00;;
9473;SDS011;8865;47.636;7.692;2022-11-06T07:59:03;8.93;;;7.33;;
9473;SDS011;8865;47.636;7.692;2022-11-06T08:01:29;9.03;;;7.53;;
9473;SDS011;8865;47.636;7.692;2022-11-06T08:03:55;8.43;;;6.67;;
9473;SDS011;8865;47.636;7.692;2022-11-06T08:06:22;9.37;;;7.27;;
9473;SDS011;8865;47.636;7.692;2022-11-06T08:08:48;10.37;;;7.33;;
9473;SDS011;8865;47.636;7.692;2022-11-06T08:11:14;9.73;;;7.87;;
9473;SDS011;8865;47.636;7.692;2022-11-06T08:13:40;9.53;;;7.67;;
9473;SDS011;8865;47.636;7.692;2022-11-06T08:16:06;8.30;;;7.20;;
9473;SDS011;8865;47.636;7.692;2022-11-06T08:18:37;8.67;;;7.30;;
9473;SDS011;8865;47.636;7.692;2022-11-06T08:21:03;8.97;;;7.40;;
9473;SDS011;8865;47.636;7.692;2022-11-06T08:23:30;8.47;;;7.17;;
9473;SDS011;8865;47.636;7.692;2022-11-06T08:25:57;8.23;;;6.90;;
9473;SDS011;8865;47.636;7.692;2022-11-06T08:28:25;8.73;;;7.00;;
9473;SDS011;8865;47.636;7.692;2022-11-06T08:30:51;8.67;;;7.37;;
9473;SDS011;8865;47.636;7.692;2022-11-06T08:33:18;8.83;;;7.27;;
9473;SDS011;8865;47.636;7.692;2022-11-06T08:35:45;9.77;;;8.10;;
9473;SDS011;8865;47.636;7.692;2022-11-06T08:38:15;7.30;;;6.30;;
9473;SDS011;8865;47.636;7.692;2022-11-06T08:40:41;7.80;;;6.97;;
9473;SDS011;8865;47.636;7.692;2022-11-06T08:43:08;7.47;;;6.73;;
9473;SDS011;8865;47.636;7.692;2022-11-06T08:45:35;7.93;;;6.87;;
9473;SDS011;8865;47.636;7.692;2022-11-06T08:48:03;8.17;;;7.00;;
9473;SDS011;8865;47.636;7.692;2022-11-06T08:50:30;9.20;;;7.00;;
9473;SDS011;8865;47.636;7.692;2022-11-06T08:52:57;7.80;;;6.70;;
9473;SDS011;8865;47.636;7.692;2022-11-06T08:55:25;7.73;;;6.83;;
9473;SDS011;8865;47.636;7.692;2022-11-06T08:57:57;7.77;;;6.97;;
9473;SDS011;8865;47.636;7.692;2022-11-06T09:00:23;7.73;;;6.87;;
9473;SDS011;8865;47.636;7.692;2022-11-06T09:02:49;7.90;;;7.10;;
9473;SDS011;8865;47.636;7.692;2022-11-06T09:05:16;8.73;;;6.73;;
9473;SDS011;8865;47.636;7.692;2022-11-06T09:07:41;7.70;;;6.80;;
9473;SDS011;8865;47.636;7.692;2022-11-06T09:10:07;7.67;;;6.90;;
9473;SDS011;8865;47.636;7.692;2022-11-06T09:12:33;6.80;;;6.00;;
9473;SDS011;8865;47.636;7.692;2022-11-06T09:14:59;7.20;;;6.20;;
9473;SDS011;8865;47.636;7.692;2022-11-06T09:17:25;7.07;;;6.17;;
9473;SDS011;8865;47.636;7.692;2022-11-06T09:19:51;7.00;;;6.30;;
9473;SDS011;8865;47.636;7.692;2022-11-06T09:22:18;6.30;;;5.70;;
9473;SDS011;8865;47.636;7.692;2022-11-06T09:24:44;6.90;;;5.33;;
9473;SDS011;8865;47.636;7.692;2022-11-06T09:27:10;6.30;;;5.70;;
9473;SDS011;8865;47.636;7.692;2022-11-06T09:29:36;5.83;;;5.33;;
9473;SDS011;8865;47.636;7.692;2022-11-06T09:32:05;5.47;;;4.97;;
9473;SDS011;8865;47.636;7.692;2022-11-06T09:34:32;5.60;;;5.10;;
9473;SDS011;8865;47.636;7.692;2022-11-06T09:36:58;5.50;;;5.00;;
9473;SDS011;8865;47.636;7.692;2022-11-06T09:39:26;5.10;;;4.70;;
9473;SDS011;8865;47.636;7.692;2022-11-06T09:41:54;6.47;;;5.43;;
9473;SDS011;8865;47.636;7.692;2022-11-06T09:47:05;4.87;;;4.47;;
9473;SDS011;8865;47.636;7.692;2022-11-06T09:49:40;5.13;;;4.67;;
9473;SDS011;8865;47.636;7.692;2022-11-06T09:55:03;5.27;;;4.77;;
9473;SDS011;8865;47.636;7.692;2022-11-06T09:57:38;5.60;;;5.10;;
9473;SDS011;8865;47.636;7.692;2022-11-06T10:00:11;4.90;;;4.50;;
9473;SDS011;8865;47.636;7.692;2022-11-06T10:03:13;5.10;;;4.70;;
9473;SDS011;8865;47.636;7.692;2022-11-06T10:05:38;4.83;;;4.43;;
9473;SDS011;8865;47.636;7.692;2022-11-06T10:08:08;4.93;;;4.53;;
9473;SDS011;8865;47.636;7.692;2022-11-06T10:10:44;4.60;;;4.20;;
9473;SDS011;8865;47.636;7.692;2022-11-06T10:15:58;4.47;;;4.07;;
9473;SDS011;8865;47.636;7.692;2022-11-06T10:26:32;4.30;;;3.90;;
9473;SDS011;8865;47.636;7.692;2022-11-06T10:34:59;3.60;;;3.30;;
9473;SDS011;8865;47.636;7.692;2022-11-06T10:37:38;3.80;;;3.50;;
9473;SDS011;8865;47.636;7.692;2022-11-06T10:40:15;3.40;;;3.10;;
9473;SDS011;8865;47.636;7.692;2022-11-06T10:42:43;4.00;;;3.70;;
9473;SDS011;8865;47.636;7.692;2022-11-06T10:45:15;3.67;;;3.37;;
9473;SDS011;8865;47.636;7.692;2022-11-06T10:47:47;3.93;;;3.63;;
9473;SDS011;8865;47.636;7.692;2022-11-06T10:50:17;4.37;;;3.97;;
9473;SDS011;8865;47.636;7.692;2022-11-06T10:58:31;4.13;;;3.83;;
9473;SDS011;8865;47.636;7.692;2022-11-06T11:01:00;4.87;;;4.40;;
9473;SDS011;8865;47.636;7.692;2022-11-06T11:03:34;5.13;;;4.60;;
9473;SDS011;8865;47.636;7.692;2022-11-06T11:06:04;4.93;;;4.43;;
9473;SDS011;8865;47.636;7.692;2022-11-06T11:08:31;5.20;;;4.70;;
9473;SDS011;8865;47.636;7.692;2022-11-06T11:13:39;4.70;;;4.30;;
9473;SDS011;8865;47.636;7.692;2022-11-06T11:16:19;5.90;;;5.30;;
9473;SDS011;8865;47.636;7.692;2022-11-06T11:18:51;5.10;;;4.60;;
9473;SDS011;8865;47.636;7.692;2022-11-06T11:24:03;5.07;;;4.57;;
9473;SDS011;8865;47.636;7.692;2022-11-06T11:26:30;5.17;;;4.67;;
9473;SDS011;8865;47.636;7.692;2022-11-06T11:28:59;5.53;;;4.50;;
9473;SDS011;8865;47.636;7.692;2022-11-06T11:31:29;4.90;;;4.40;;
9473;SDS011;8865;47.636;7.692;2022-11-06T11:33:58;4.33;;;3.93;;
9473;SDS011;8865;47.636;7.692;2022-11-06T11:36:29;4.13;;;3.70;;
9473;SDS011;8865;47.636;7.692;2022-11-06T11:47:35;5.37;;;4.87;;
9473;SDS011;8865;47.636;7.692;2022-11-06T11:50:18;4.40;;;4.00;;
9473;SDS011;8865;47.636;7.692;2022-11-06T11:52:53;4.47;;;4.07;;
9473;SDS011;8865;47.636;7.692;2022-11-06T11:55:24;4.90;;;4.50;;
9473;SDS011;8865;47.636;7.692;2022-11-06T11:57:53;4.30;;;3.90;;
9473;SDS011;8865;47.636;7.692;2022-11-06T12:00:22;4.63;;;4.20;;
9473;SDS011;8865;47.636;7.692;2022-11-06T12:05:20;4.53;;;4.13;;
9473;SDS011;8865;47.636;7.692;2022-11-06T12:07:53;4.40;;;4.00;;
9473;SDS011;8865;47.636;7.692;2022-11-06T12:13:04;5.33;;;4.20;;
9473;SDS011;8865;47.636;7.692;2022-11-06T12:18:22;4.53;;;4.13;;
9473;SDS011;8865;47.636;7.692;2022-11-06T12:21:05;5.07;;;4.57;;
9473;SDS011;8865;47.636;7.692;2022-11-06T12:23:35;4.67;;;4.27;;
9473;SDS011;8865;47.636;7.692;2022-11-06T12:26:08;5.17;;;4.67;;
9473;SDS011;8865;47.636;7.692;2022-11-06T12:28:55;5.00;;;4.50;;
9473;SDS011;8865;47.636;7.692;2022-11-06T12:34:12;4.60;;;4.13;;
9473;SDS011;8865;47.636;7.692;2022-11-06T12:36:56;5.40;;;4.30;;
9473;SDS011;8865;47.636;7.692;2022-11-06T12:39:42;4.93;;;4.43;;
9473;SDS011;8865;47.636;7.692;2022-11-06T12:42:13;4.33;;;3.93;;
9473;SDS011;8865;47.636;7.692;2022-11-06T12:44:45;4.40;;;4.00;;
9473;SDS011;8865;47.636;7.692;2022-11-06T12:55:50;4.13;;;3.73;;
9473;SDS011;8865;47.636;7.692;2022-11-06T13:09:03;3.87;;;3.57;;
9473;SDS011;8865;47.636;7.692;2022-11-06T13:16:48;4.10;;;3.63;;
9473;SDS011;8865;47.636;7.692;2022-11-06T13:19:19;3.70;;;3.40;;
9473;SDS011;8865;47.636;7.692;2022-11-06T13:21:58;3.33;;;3.03;;
9473;SDS011;8865;47.636;7.692;2022-11-06T13:25:11;3.30;;;3.00;;
9473;SDS011;8865;47.636;7.692;2022-11-06T13:30:03;3.60;;;3.30;;
9473;SDS011;8865;47.636;7.692;2022-11-06T13:32:38;3.80;;;3.40;;
9473;SDS011;8865;47.636;7.692;2022-11-06T13:35:11;4.10;;;3.63;;
9473;SDS011;8865;47.636;7.692;2022-11-06T13:37:40;3.57;;;3.27;;
9473;SDS011;8865;47.636;7.692;2022-11-06T13:40:16;4.20;;;3.80;;
9473;SDS011;8865;47.636;7.692;2022-11-06T13:42:51;3.40;;;3.10;;
9473;SDS011;8865;47.636;7.692;2022-11-06T13:45:22;3.60;;;2.90;;
9473;SDS011;8865;47.636;7.692;2022-11-06T13:51:23;3.70;;;3.40;;
9473;SDS011;8865;47.636;7.692;2022-11-06T13:59:19;4.13;;;3.03;;
9473;SDS011;8865;47.636;7.692;2022-11-06T14:07:46;4.17;;;2.97;;
9473;SDS011;8865;47.636;7.692;2022-11-06T14:10:16;3.00;;;2.80;;
9473;SDS011;8865;47.636;7.692;2022-11-06T14:12:45;4.27;;;3.07;;
9473;SDS011;8865;47.636;7.692;2022-11-06T14:15:14;3.30;;;3.00;;
9473;SDS011;8865;47.636;7.692;2022-11-06T14:17:55;3.20;;;2.90;;
9473;SDS011;8865;47.636;7.692;2022-11-06T14:20:27;3.40;;;3.10;;
9473;SDS011;8865;47.636;7.692;2022-11-06T14:28:28;5.40;;;3.20;;
9473;SDS011;8865;47.636;7.692;2022-11-06T14:30:56;3.40;;;3.10;;
9473;SDS011;8865;47.636;7.692;2022-11-06T14:38:48;3.10;;;2.73;;
9473;SDS011;8865;47.636;7.692;2022-11-06T14:44:00;3.90;;;2.70;;
9473;SDS011;8865;47.636;7.692;2022-11-06T14:46:29;3.37;;;2.77;;
9473;SDS011;8865;47.636;7.692;2022-11-06T14:49:04;2.60;;;2.40;;
9473;SDS011;8865;47.636;7.692;2022-11-06T14:51:34;2.67;;;2.47;;
9473;SDS011;8865;47.636;7.692;2022-11-06T14:54:03;3.47;;;2.40;;
9473;SDS011;8865;47.636;7.692;2022-11-06T14:56:45;3.23;;;2.50;;
9473;SDS011;8865;47.636;7.692;2022-11-06T14:59:19;2.80;;;2.33;;
9473;SDS011;8865;47.636;7.692;2022-11-06T15:01:59;2.90;;;2.50;;
9473;SDS011;8865;47.636;7.692;2022-11-06T15:04:34;3.63;;;2.70;;
9473;SDS011;8865;47.636;7.692;2022-11-06T15:07:08;2.50;;;2.30;;
9473;SDS011;8865;47.636;7.692;2022-11-06T15:09:50;3.10;;;2.80;;
9473;SDS011;8865;47.636;7.692;2022-11-06T15:12:16;3.17;;;2.80;;
9473;SDS011;8865;47.636;7.692;2022-11-06T15:17:11;2.50;;;2.30;;
9473;SDS011;8865;47.636;7.692;2022-11-06T15:20:14;2.77;;;2.50;;
9473;SDS011;8865;47.636;7.692;2022-11-06T15:22:42;2.90;;;2.70;;
9473;SDS011;8865;47.636;7.692;2022-11-06T15:27:41;4.13;;;2.77;;
9473;SDS011;8865;47.636;7.692;2022-11-06T15:30:17;3.00;;;2.80;;
9473;SDS011;8865;47.636;7.692;2022-11-06T15:32:44;3.40;;;3.10;;
9473;SDS011;8865;47.636;7.692;2022-11-06T15:35:18;4.80;;;3.60;;
9473;SDS011;8865;47.636;7.692;2022-11-06T15:37:54;3.50;;;3.20;;
9473;SDS011;8865;47.636;7.692;2022-11-06T15:40:28;3.87;;;3.20;;
9473;SDS011;8865;47.636;7.692;2022-11-06T15:42:57;3.80;;;3.40;;
9473;SDS011;8865;47.636;7.692;2022-11-06T15:45:26;3.70;;;3.27;;
9473;SDS011;8865;47.636;7.692;2022-11-06T15:52:53;3.70;;;3.40;;
9473;SDS011;8865;47.636;7.692;2022-11-06T15:55:27;4.43;;;3.40;;
9473;SDS011;8865;47.636;7.692;2022-11-06T15:58:03;4.10;;;3.70;;
9473;SDS011;8865;47.636;7.692;2022-11-06T16:00:34;4.20;;;3.80;;
9473;SDS011;8865;47.636;7.692;2022-11-06T16:03:05;5.23;;;3.60;;
9473;SDS011;8865;47.636;7.692;2022-11-06T16:05:35;3.70;;;3.10;;
9473;SDS011;8865;47.636;7.692;2022-11-06T16:08:02;4.43;;;3.10;;
9473;SDS011;8865;47.636;7.692;2022-11-06T16:10:30;3.87;;;3.30;;
9473;SDS011;8865;47.636;7.692;2022-11-06T16:13:00;4.03;;;3.63;;
9473;SDS011;8865;47.636;7.692;2022-11-06T16:15:49;4.03;;;3.70;;
9473;SDS011;8865;47.636;7.692;2022-11-06T16:18:43;3.53;;;3.23;;
9473;SDS011;8865;47.636;7.692;2022-11-06T16:21:12;3.80;;;3.50;;
9473;SDS011;8865;47.636;7.692;2022-11-06T16:23:47;3.77;;;3.37;;
9473;SDS011;8865;47.636;7.692;2022-11-06T16:26:48;3.97;;;3.60;;
9473;SDS011;8865;47.636;7.692;2022-11-06T16:29:16;3.60;;;3.30;;
9473;SDS011;8865;47.636;7.692;2022-11-06T16:31:45;3.53;;;3.23;;
9473;SDS011;8865;47.636;7.692;2022-11-06T16:37:06;4.70;;;3.53;;
9473;SDS011;8865;47.636;7.692;2022-11-06T16:39:54;4.10;;;3.60;;
9473;SDS011;8865;47.636;7.692;2022-11-06T16:47:41;3.70;;;3.33;;
9473;SDS011;8865;47.636;7.692;2022-11-06T16:50:40;4.20;;;3.80;;
9473;SDS011;8865;47.636;7.692;2022-11-06T16:53:08;4.00;;;3.60;;
9473;SDS011;8865;47.636;7.692;2022-11-06T16:55:34;3.93;;;3.63;;
9473;SDS011;8865;47.636;7.692;2022-11-06T16:58:00;4.53;;;3.43;;
9473;SDS011;8865;47.636;7.692;2022-11-06T17:00:31;4.03;;;3.63;;
9473;SDS011;8865;47.636;7.692;2022-11-06T17:03:04;4.60;;;4.20;;
9473;SDS011;8865;47.636;7.692;2022-11-06T17:05:33;3.87;;;3.47;;
9473;SDS011;8865;47.636;7.692;2022-11-06T17:10:43;4.33;;;3.87;;
9473;SDS011;8865;47.636;7.692;2022-11-06T17:13:15;8.13;;;4.17;;
9473;SDS011;8865;47.636;7.692;2022-11-06T17:15:47;4.20;;;3.80;;
9473;SDS011;8865;47.636;7.692;2022-11-06T17:18:28;4.27;;;3.87;;
9473;SDS011;8865;47.636;7.692;2022-11-06T17:20:55;5.23;;;3.90;;
9473;SDS011;8865;47.636;7.692;2022-11-06T17:23:23;5.43;;;3.97;;
9473;SDS011;8865;47.636;7.692;2022-11-06T17:25:51;4.70;;;4.20;;
9473;SDS011;8865;47.636;7.692;2022-11-06T17:28:21;5.43;;;4.93;;
9473;SDS011;8865;47.636;7.692;2022-11-06T17:30:47;5.30;;;4.80;;
9473;SDS011;8865;47.636;7.692;2022-11-06T17:33:13;5.47;;;4.93;;
9473;SDS011;8865;47.636;7.692;2022-11-06T17:35:40;6.13;;;4.77;;
9473;SDS011;8865;47.636;7.692;2022-11-06T17:38:06;6.07;;;4.93;;
9473;SDS011;8865;47.636;7.692;2022-11-06T17:40:32;5.20;;;4.50;;
9473;SDS011;8865;47.636;7.692;2022-11-06T17:42:58;5.57;;;5.07;;
9473;SDS011;8865;47.636;7.692;2022-11-06T17:45:24;5.17;;;4.67;;
9473;SDS011;8865;47.636;7.692;2022-11-06T17:47:50;5.70;;;4.80;;
9473;SDS011;8865;47.636;7.692;2022-11-06T17:50:16;6.20;;;5.30;;
9473;SDS011;8865;47.636;7.692;2022-11-06T17:52:42;5.53;;;5.03;;
9473;SDS011;8865;47.636;7.692;2022-11-06T17:55:08;5.93;;;5.23;;
9473;SDS011;8865;47.636;7.692;2022-11-06T17:57:34;5.67;;;5.17;;
9473;SDS011;8865;47.636;7.692;2022-11-06T18:00:00;7.80;;;5.80;;
9473;SDS011;8865;47.636;7.692;2022-11-06T18:02:26;6.43;;;5.57;;
9473;SDS011;8865;47.636;7.692;2022-11-06T18:04:53;7.30;;;5.70;;
9473;SDS011;8865;47.636;7.692;2022-11-06T18:07:20;7.10;;;6.10;;
9473;SDS011;8865;47.636;7.692;2022-11-06T18:09:46;7.50;;;5.93;;
9473;SDS011;8865;47.636;7.692;2022-11-06T18:12:12;7.87;;;5.83;;